createdAt,value
2018-06-12T00:00:19.230Z,99.99
2018-06-12T00:01:19.203Z,99.99
2018-06-12T00:02:19.188Z,99.99
2018-06-12T00:03:19.153Z,99.99
2018-06-12T00:04:19.138Z,99.99
2018-06-12T00:05:19.110Z,99.99
2018-06-12T00:06:19.089Z,99.99
2018-06-12T00:07:19.061Z,99.99
2018-06-12T00:08:19.040Z,99.99
2018-06-12T00:09:19.011Z,99.99
2018-06-12T00:10:18.994Z,99.99
2018-06-12T00:11:18.974Z,99.99
2018-06-12T00:12:18.938Z,99.99
2018-06-12T00:13:18.917Z,99.99
2018-06-12T00:14:18.894Z,99.99
2018-06-12T00:15:18.873Z,99.99
2018-06-12T00:16:18.836Z,99.99
2018-06-12T00:17:18.821Z,99.99
2018-06-12T00:18:18.793Z,99.99
2018-06-12T00:19:18.772Z,99.99
2018-06-12T00:20:18.740Z,99.99
2018-06-12T00:21:18.721Z,99.99
2018-06-12T00:22:18.696Z,99.99
2018-06-12T00:23:18.678Z,99.99
2018-06-12T00:24:18.649Z,99.99
2018-06-12T00:25:18.618Z,99.99
2018-06-12T00:26:18.597Z,99.99
2018-06-12T00:27:18.575Z,99.99
2018-06-12T00:28:18.545Z,99.99
2018-06-12T00:29:18.526Z,99.99
2018-06-12T00:30:18.498Z,99.99
2018-06-12T00:31:18.482Z,99.99
2018-06-12T00:32:18.455Z,99.99
2018-06-12T00:33:18.428Z,99.99
2018-06-12T00:34:18.401Z,99.99
2018-06-12T00:35:18.376Z,99.99
2018-06-12T00:36:18.357Z,99.99
2018-06-12T00:37:18.326Z,99.99
2018-06-12T00:38:18.304Z,99.99
2018-06-12T00:39:18.282Z,99.99
2018-06-12T00:40:18.251Z,99.99
2018-06-12T00:41:18.235Z,99.99
2018-06-12T00:42:18.206Z,99.99
2018-06-12T00:43:18.191Z,99.57
2018-06-12T00:44:18.161Z,99.99
2018-06-12T00:45:18.136Z,99.99
2018-06-12T00:46:18.103Z,99.99
2018-06-12T00:47:18.087Z,99.99
2018-06-12T00:48:18.055Z,99.99
2018-06-12T00:49:18.032Z,99.62
2018-06-12T00:50:18.009Z,99.99
2018-06-12T00:51:17.986Z,99.62
2018-06-12T00:52:17.957Z,99.99
2018-06-12T00:53:17.938Z,99.62
2018-06-12T00:54:17.907Z,99.99
2018-06-12T00:55:17.881Z,99.99
2018-06-12T00:56:17.864Z,99.81
2018-06-12T00:57:17.843Z,99.90
2018-06-12T00:58:17.813Z,99.99
2018-06-12T00:59:17.801Z,99.62
2018-06-12T01:00:17.770Z,99.43
2018-06-12T01:01:17.740Z,99.90
2018-06-12T01:02:17.713Z,99.62
2018-06-12T01:03:17.683Z,99.14
2018-06-12T01:04:17.658Z,99.24
2018-06-12T01:05:17.636Z,98.95
2018-06-12T01:06:17.613Z,99.24
2018-06-12T01:07:17.596Z,98.47
2018-06-12T01:08:17.560Z,98.85
2018-06-12T01:09:17.539Z,99.24
2018-06-12T01:10:17.516Z,99.24
2018-06-12T01:11:17.483Z,99.33
2018-06-12T01:12:17.470Z,99.62
2018-06-12T01:13:17.443Z,99.14
2018-06-12T01:14:17.416Z,99.24
2018-06-12T01:15:17.394Z,99.04
2018-06-12T01:16:17.373Z,99.24
2018-06-12T01:17:17.338Z,99.24
2018-06-12T01:18:17.312Z,99.14
2018-06-12T01:19:17.299Z,99.33
2018-06-12T01:20:17.276Z,99.24
2018-06-12T01:21:17.243Z,99.90
2018-06-12T01:22:17.214Z,99.71
2018-06-12T01:23:17.196Z,99.71
2018-06-12T01:24:17.173Z,99.43
2018-06-12T01:25:17.140Z,99.71
2018-06-12T01:26:17.120Z,99.71
2018-06-12T01:27:17.096Z,99.81
2018-06-12T01:28:17.066Z,99.99
2018-06-12T01:29:17.056Z,99.90
2018-06-12T01:30:17.022Z,99.43
2018-06-12T01:31:16.987Z,99.99
2018-06-12T01:32:16.966Z,99.99
2018-06-12T01:33:16.950Z,99.90
2018-06-12T01:34:16.915Z,99.99
2018-06-12T01:35:16.901Z,99.38
2018-06-12T01:36:16.864Z,99.62
2018-06-12T01:37:16.847Z,99.99
2018-06-12T01:38:16.815Z,99.99
2018-06-12T01:39:16.793Z,99.99
2018-06-12T01:40:16.771Z,99.99
2018-06-12T01:41:16.742Z,99.99
2018-06-12T01:42:16.720Z,99.95
2018-06-12T01:43:16.689Z,99.99
2018-06-12T01:44:16.675Z,99.99
2018-06-12T01:45:16.645Z,99.99
2018-06-12T01:46:16.616Z,99.95
2018-06-12T01:47:16.600Z,99.99
2018-06-12T01:48:16.573Z,99.99
2018-06-12T01:49:16.541Z,99.99
2018-06-12T01:50:16.523Z,99.99
2018-06-12T01:51:16.488Z,99.85
2018-06-12T01:52:16.474Z,99.99
2018-06-12T01:53:16.442Z,99.95
2018-06-12T01:54:16.417Z,99.57
2018-06-12T01:55:16.396Z,99.71
2018-06-12T01:56:16.372Z,99.28
2018-06-12T01:57:16.348Z,99.33
2018-06-12T01:58:16.316Z,99.66
2018-06-12T01:59:16.297Z,99.57
2018-06-12T02:00:16.265Z,99.57
2018-06-12T02:01:16.247Z,99.85
2018-06-12T02:02:16.216Z,99.85
2018-06-12T02:03:16.203Z,99.95
2018-06-12T02:04:16.173Z,99.99
2018-06-12T02:05:16.151Z,99.76
2018-06-12T02:06:16.119Z,99.57
2018-06-12T02:07:16.100Z,99.99
2018-06-12T02:08:16.066Z,99.99
2018-06-12T02:09:16.051Z,99.99
2018-06-12T02:13:19.933Z,99.95
2018-06-12T02:14:19.900Z,99.99
2018-06-12T02:16:12.809Z,99.95
2018-06-12T02:17:12.751Z,99.99
2018-06-12T02:18:12.734Z,99.99
2018-06-12T02:19:12.701Z,99.99
2018-06-12T02:20:12.682Z,99.99
2018-06-12T02:21:12.657Z,99.99
2018-06-12T02:22:12.630Z,99.99
2018-06-12T02:23:12.604Z,99.99
2018-06-12T02:24:12.581Z,99.57
2018-06-12T02:25:12.556Z,99.99
2018-06-12T02:26:12.528Z,99.99
2018-06-12T02:27:12.499Z,99.99
2018-06-12T02:28:12.483Z,99.99
2018-06-12T02:29:12.450Z,99.99
2018-06-12T02:30:12.438Z,99.99
2018-06-12T02:31:12.408Z,99.99
2018-06-12T02:32:12.379Z,99.99
2018-06-12T02:33:12.359Z,99.57
2018-06-12T02:34:12.334Z,99.57
2018-06-12T02:35:12.304Z,99.38
2018-06-12T02:36:12.284Z,99.19
2018-06-12T02:37:12.248Z,99.38
2018-06-12T02:38:12.229Z,99.76
2018-06-12T02:39:12.203Z,99.95
2018-06-12T02:40:12.180Z,99.57
2018-06-12T02:41:12.160Z,99.85
2018-06-12T02:42:12.133Z,99.57
2018-06-12T02:43:12.112Z,99.95
2018-06-12T02:44:12.075Z,99.85
2018-06-12T02:45:12.071Z,99.57
2018-06-12T02:46:12.025Z,99.38
2018-06-12T02:47:12.000Z,99.57
2018-06-12T02:48:11.984Z,99.57
2018-06-12T02:49:11.951Z,99.38
2018-06-12T02:50:11.934Z,99.09
2018-06-12T02:51:11.908Z,99.19
2018-06-12T02:52:11.875Z,98.99
2018-06-12T02:53:11.860Z,98.80
2018-06-12T02:54:11.827Z,99.19
2018-06-12T02:55:11.810Z,98.99
2018-06-12T02:56:11.780Z,98.71
2018-06-12T02:57:11.756Z,98.99
2018-06-12T02:58:11.739Z,99.19
2018-06-12T02:59:11.711Z,99.28
2018-06-12T03:00:11.679Z,99.38
2018-06-12T03:01:11.657Z,99.48
2018-06-12T03:02:11.628Z,99.19
2018-06-12T03:03:11.609Z,99.28
2018-06-12T03:04:11.576Z,99.19
2018-06-12T03:05:11.562Z,99.19
2018-06-12T03:06:11.527Z,98.90
2018-06-12T03:07:11.511Z,99.38
2018-06-12T03:08:11.490Z,98.61
2018-06-12T03:09:11.457Z,98.61
2018-06-12T03:10:11.430Z,99.57
2018-06-12T03:11:11.415Z,98.99
2018-06-12T03:12:11.382Z,98.99
2018-06-12T03:13:11.364Z,98.23
2018-06-12T03:14:11.328Z,98.33
2018-06-12T03:15:11.304Z,98.33
2018-06-12T03:16:11.283Z,98.18
2018-06-12T03:17:11.261Z,98.47
2018-06-12T03:18:11.228Z,98.33
2018-06-12T03:19:11.209Z,97.85
2018-06-12T03:20:11.188Z,97.85
2018-06-12T03:21:11.167Z,97.75
2018-06-12T03:22:11.132Z,98.04
2018-06-12T03:23:11.138Z,97.85
2018-06-12T03:24:11.092Z,97.75
2018-06-12T03:25:11.058Z,98.23
2018-06-12T03:26:11.030Z,97.94
2018-06-12T03:27:11.011Z,99.28
2018-06-12T03:28:10.990Z,98.23
2018-06-12T03:29:10.964Z,98.13
2018-06-12T03:30:11.822Z,98.71
2018-06-12T03:31:10.913Z,98.80
2018-06-12T03:32:10.883Z,97.94
2018-06-12T03:33:10.856Z,98.61
2018-06-12T03:34:10.840Z,99.38
2018-06-12T03:35:10.816Z,98.99
2018-06-12T03:36:10.784Z,98.80
2018-06-12T03:37:10.763Z,99.28
2018-06-12T03:38:10.739Z,99.09
2018-06-12T03:39:10.713Z,99.19
2018-06-12T03:40:10.688Z,99.95
2018-06-12T03:41:10.658Z,99.99
2018-06-12T03:42:10.641Z,99.95
2018-06-12T03:43:10.616Z,99.85
2018-06-12T03:44:10.583Z,99.85
2018-06-12T03:45:10.568Z,99.99
2018-06-12T03:46:10.538Z,99.99
2018-06-12T03:47:10.519Z,99.99
2018-06-12T03:48:10.494Z,99.99
2018-06-12T03:49:10.464Z,99.99
2018-06-12T03:50:10.442Z,99.99
2018-06-12T03:51:10.419Z,99.99
2018-06-12T03:52:10.387Z,99.99
2018-06-12T03:53:10.365Z,99.99
2018-06-12T03:54:10.343Z,99.99
2018-06-12T03:55:10.318Z,99.99
2018-06-12T03:56:10.287Z,99.99
2018-06-12T03:57:10.263Z,99.99
2018-06-12T03:58:10.233Z,99.99
2018-06-12T03:59:10.211Z,99.99
2018-06-12T04:00:10.191Z,99.99
2018-06-12T04:01:10.167Z,99.99
2018-06-12T04:02:10.138Z,99.99
2018-06-12T04:03:10.109Z,99.76
2018-06-12T04:04:10.098Z,99.76
2018-06-12T04:05:10.061Z,99.99
2018-06-12T04:06:10.048Z,99.99
2018-06-12T04:07:10.016Z,99.76
2018-06-12T04:08:09.991Z,99.19
2018-06-12T04:09:09.968Z,98.33
2018-06-12T04:10:09.942Z,98.42
2018-06-12T04:11:09.916Z,98.90
2018-06-12T04:12:09.899Z,98.42
2018-06-12T04:13:09.866Z,98.71
2018-06-12T04:14:09.840Z,99.09
2018-06-12T04:15:09.869Z,99.95
2018-06-12T04:16:09.786Z,99.95
2018-06-12T04:17:09.772Z,98.09
2018-06-12T04:18:09.737Z,97.56
2018-06-12T04:19:09.719Z,98.28
2018-06-12T04:20:09.698Z,98.38
2018-06-12T04:21:09.672Z,97.56
2018-06-12T04:22:09.638Z,98.13
2018-06-12T04:23:09.618Z,98.33
2018-06-12T04:24:09.591Z,98.04
2018-06-12T04:25:09.590Z,97.56
2018-06-12T04:26:09.540Z,98.13
2018-06-12T04:27:09.517Z,98.80
2018-06-12T04:28:09.493Z,97.94
2018-06-12T04:29:09.473Z,97.85
2018-06-12T04:30:09.439Z,97.18
2018-06-12T04:31:09.419Z,97.37
2018-06-12T04:32:09.397Z,98.23
2018-06-12T04:33:09.370Z,97.94
2018-06-12T04:34:09.348Z,97.94
2018-06-12T04:35:09.314Z,98.33
2018-06-12T04:36:09.298Z,98.13
2018-06-12T04:37:09.272Z,98.04
2018-06-12T04:38:09.246Z,98.33
2018-06-12T04:39:09.219Z,98.23
2018-06-12T04:40:09.198Z,97.94
2018-06-12T04:41:09.178Z,98.61
2018-06-12T04:42:09.146Z,98.33
2018-06-12T04:43:09.125Z,97.47
2018-06-12T04:44:09.095Z,97.37
2018-06-12T04:45:09.070Z,97.28
2018-06-12T04:46:09.046Z,96.94
2018-06-12T04:47:09.023Z,97.71
2018-06-12T04:48:08.994Z,96.27
2018-06-12T04:49:08.978Z,96.84
2018-06-12T04:50:08.942Z,96.75
2018-06-12T04:51:08.933Z,96.75
2018-06-12T04:52:08.894Z,96.94
2018-06-12T04:53:08.879Z,96.56
2018-06-12T04:54:08.853Z,96.75
2018-06-12T04:55:08.824Z,94.65
2018-06-12T04:56:08.798Z,94.84
2018-06-12T04:57:08.777Z,95.51
2018-06-12T04:58:08.752Z,95.51
2018-06-12T04:59:08.722Z,95.79
2018-06-12T05:00:08.699Z,94.93
2018-06-12T05:01:08.675Z,95.12
2018-06-12T05:02:08.655Z,95.12
2018-06-12T05:03:08.625Z,95.41
2018-06-12T05:04:08.615Z,95.51
2018-06-12T05:05:08.573Z,94.74
2018-06-12T05:06:08.554Z,94.36
2018-06-12T05:07:08.547Z,94.55
2018-06-12T05:08:08.503Z,94.65
2018-06-12T05:09:08.481Z,95.32
2018-06-12T05:10:08.458Z,94.26
2018-06-12T05:11:08.435Z,94.17
2018-06-12T05:12:08.404Z,94.26
2018-06-12T05:13:08.386Z,93.69
2018-06-12T05:14:08.355Z,93.40
2018-06-12T05:15:08.338Z,94.26
2018-06-12T05:16:08.313Z,92.54
2018-06-12T05:17:08.280Z,93.31
2018-06-12T05:18:08.263Z,94.26
2018-06-12T05:19:08.237Z,93.98
2018-06-12T05:20:08.207Z,93.60
2018-06-12T05:21:08.186Z,93.40
2018-06-12T05:22:08.158Z,93.31
2018-06-12T05:23:08.132Z,93.31
2018-06-12T05:24:08.113Z,93.40
2018-06-12T05:25:08.092Z,93.31
2018-06-12T05:26:08.065Z,93.50
2018-06-12T05:27:08.035Z,93.88
2018-06-12T05:28:08.021Z,93.31
2018-06-12T05:29:07.990Z,93.31
2018-06-12T05:30:07.963Z,93.88
2018-06-12T05:31:08.008Z,94.17
2018-06-12T05:32:07.917Z,93.69
2018-06-12T05:33:07.896Z,93.69
2018-06-12T05:34:07.862Z,93.31
2018-06-12T05:35:07.843Z,92.97
2018-06-12T05:36:07.817Z,92.83
2018-06-12T05:37:07.787Z,92.25
2018-06-12T05:38:07.773Z,93.02
2018-06-12T05:39:07.737Z,93.50
2018-06-12T05:40:07.727Z,92.97
2018-06-12T05:41:07.699Z,92.59
2018-06-12T05:42:07.666Z,93.07
2018-06-12T05:43:07.642Z,92.88
2018-06-12T05:44:07.623Z,92.88
2018-06-12T05:45:07.603Z,93.07
2018-06-12T05:46:07.573Z,92.02
2018-06-12T05:47:07.548Z,92.40
2018-06-12T05:48:07.526Z,91.53
2018-06-12T05:49:07.499Z,91.73
2018-06-12T05:50:07.479Z,91.73
2018-06-12T05:51:07.446Z,92.21
2018-06-12T05:52:07.429Z,92.69
2018-06-12T05:53:07.404Z,92.88
2018-06-12T05:54:07.380Z,93.45
2018-06-12T05:55:07.356Z,93.26
2018-06-12T05:56:07.322Z,92.59
2018-06-12T05:57:07.300Z,92.49
2018-06-12T05:58:07.279Z,91.73
2018-06-12T05:59:07.256Z,91.73
2018-06-12T06:00:07.227Z,92.40
2018-06-12T06:01:07.200Z,92.59
2018-06-12T06:02:07.186Z,92.88
2018-06-12T06:03:07.153Z,92.21
2018-06-12T06:04:07.125Z,92.88
2018-06-12T06:05:07.114Z,91.53
2018-06-12T06:06:07.084Z,91.92
2018-06-12T06:07:07.055Z,92.44
2018-06-12T06:08:07.040Z,91.49
2018-06-12T06:09:07.006Z,90.63
2018-06-12T06:10:06.997Z,90.72
2018-06-12T06:11:06.963Z,90.72
2018-06-12T06:12:06.938Z,90.53
2018-06-12T06:13:06.908Z,90.63
2018-06-12T06:14:06.896Z,90.63
2018-06-12T06:15:06.867Z,90.44
2018-06-12T06:16:06.844Z,90.63
2018-06-12T06:17:06.868Z,90.77
2018-06-12T06:18:06.787Z,90.30
2018-06-12T06:19:06.768Z,90.58
2018-06-12T06:20:06.743Z,90.67
2018-06-12T06:21:06.713Z,91.44
2018-06-12T06:22:06.702Z,91.63
2018-06-12T06:23:06.667Z,91.25
2018-06-12T06:24:06.644Z,91.16
2018-06-12T06:25:06.624Z,90.96
2018-06-12T06:26:06.594Z,91.25
2018-06-12T06:27:06.569Z,91.06
2018-06-12T06:28:06.548Z,91.25
2018-06-12T06:29:06.521Z,90.53
2018-06-12T06:30:06.501Z,90.15
2018-06-12T06:31:06.475Z,90.34
2018-06-12T06:32:06.447Z,89.86
2018-06-12T06:33:06.428Z,89.95
2018-06-12T06:34:06.408Z,90.53
2018-06-12T06:35:06.376Z,90.44
2018-06-12T06:36:06.349Z,89.38
2018-06-12T06:37:06.327Z,89.48
2018-06-12T06:38:06.311Z,90.44
2018-06-12T06:39:06.283Z,89.52
2018-06-12T06:40:06.253Z,88.81
2018-06-12T06:41:06.238Z,89.29
2018-06-12T06:42:06.212Z,89.29
2018-06-12T06:43:06.219Z,89.76
2018-06-12T06:44:06.169Z,89.48
2018-06-12T06:45:06.135Z,89.67
2018-06-12T06:46:06.108Z,89.14
2018-06-12T06:47:06.092Z,89.33
2018-06-12T06:48:06.063Z,88.76
2018-06-12T06:49:06.041Z,88.62
2018-06-12T06:50:06.009Z,88.66
2018-06-12T06:51:06.022Z,88.18
2018-06-12T06:52:05.970Z,87.95
2018-06-12T06:53:05.942Z,87.95
2018-06-12T06:54:05.914Z,88.04
2018-06-12T06:55:05.890Z,88.66
2018-06-12T06:56:05.869Z,88.85
2018-06-12T06:57:05.842Z,88.66
2018-06-12T06:58:05.818Z,88.18
2018-06-12T06:59:05.799Z,87.61
2018-06-12T07:00:05.772Z,87.70
2018-06-12T07:01:05.747Z,87.99
2018-06-12T07:02:05.727Z,87.51
2018-06-12T07:03:05.710Z,88.47
2018-06-12T07:04:05.692Z,87.23
2018-06-12T07:05:05.654Z,87.03
2018-06-12T07:06:05.632Z,88.09
2018-06-12T07:07:05.607Z,86.55
2018-06-12T07:08:05.580Z,86.41
2018-06-12T07:09:05.574Z,87.17
2018-06-12T07:10:05.527Z,85.83
2018-06-12T07:11:05.511Z,85.25
2018-06-12T07:12:05.479Z,84.58
2018-06-12T07:13:05.460Z,85.16
2018-06-12T07:14:05.439Z,84.20
2018-06-12T07:15:05.414Z,84.11
2018-06-12T07:16:05.385Z,84.78
2018-06-12T07:17:05.358Z,84.58
2018-06-12T07:18:05.341Z,84.58
2018-06-12T07:19:05.311Z,84.58
2018-06-12T07:20:05.295Z,84.91
2018-06-12T07:21:05.277Z,83.15
2018-06-12T07:22:05.239Z,83.63
2018-06-12T07:23:05.216Z,83.53
2018-06-12T07:24:05.191Z,83.76
2018-06-12T07:25:05.167Z,83.76
2018-06-12T07:26:05.144Z,81.75
2018-06-12T07:27:05.120Z,82.32
2018-06-12T07:28:05.099Z,83.09
2018-06-12T07:29:05.079Z,83.67
2018-06-12T07:30:05.069Z,83.58
2018-06-12T07:31:05.031Z,83.09
2018-06-12T07:32:05.005Z,82.90
2018-06-12T07:33:04.983Z,83.00
2018-06-12T07:34:04.958Z,83.15
2018-06-12T07:35:04.937Z,84.53
2018-06-12T07:36:04.908Z,84.63
2018-06-12T07:37:04.890Z,84.63
2018-06-12T07:38:04.861Z,83.58
2018-06-12T07:39:04.844Z,83.19
2018-06-12T07:40:04.809Z,83.25
2018-06-12T07:41:04.796Z,83.63
2018-06-12T07:42:04.762Z,84.20
2018-06-12T07:43:04.745Z,84.45
2018-06-12T07:44:04.725Z,85.64
2018-06-12T07:45:04.714Z,85.45
2018-06-12T07:46:04.671Z,84.74
2018-06-12T07:47:04.644Z,85.41
2018-06-12T07:48:04.631Z,84.88
2018-06-12T07:49:04.596Z,84.64
2018-06-12T07:50:04.582Z,85.06
2018-06-12T07:51:04.566Z,84.68
2018-06-12T07:52:04.531Z,84.01
2018-06-12T07:53:04.504Z,84.58
2018-06-12T07:54:04.486Z,84.88
2018-06-12T07:55:04.506Z,83.15
2018-06-12T07:56:04.437Z,83.53
2018-06-12T07:57:04.407Z,83.72
2018-06-12T07:58:04.390Z,84.11
2018-06-12T07:59:04.360Z,81.90
2018-06-12T08:00:04.337Z,81.62
2018-06-12T08:01:04.340Z,81.71
2018-06-12T08:02:04.292Z,82.09
2018-06-12T08:03:04.270Z,82.42
2018-06-12T08:04:04.237Z,82.19
2018-06-12T08:05:04.215Z,80.70
2018-06-12T08:06:04.196Z,80.70
2018-06-12T08:07:04.240Z,81.27
2018-06-12T08:08:04.144Z,81.46
2018-06-12T08:09:04.118Z,81.18
2018-06-12T08:10:04.105Z,80.03
2018-06-12T08:11:04.080Z,80.32
2018-06-12T08:12:04.074Z,79.21
2018-06-12T08:13:04.044Z,79.26
2018-06-12T08:14:04.003Z,79.55
2018-06-12T08:15:03.979Z,80.03
2018-06-12T08:16:03.953Z,80.56
2018-06-12T08:17:03.939Z,80.18
2018-06-12T08:18:03.943Z,80.27
2018-06-12T08:19:03.908Z,81.37
2018-06-12T08:20:03.864Z,80.99
2018-06-12T08:21:03.856Z,79.55
2018-06-12T08:22:03.810Z,78.59
2018-06-12T08:23:03.789Z,78.20
2018-06-12T08:24:03.767Z,78.44
2018-06-12T08:25:03.745Z,78.05
2018-06-12T08:26:03.713Z,77.58
2018-06-12T08:27:03.689Z,77.95
2018-06-12T08:28:03.674Z,78.25
2018-06-12T08:29:03.645Z,77.71
2018-06-12T08:30:03.760Z,77.76
2018-06-12T08:31:03.617Z,77.04
2018-06-12T08:32:03.581Z,77.09
2018-06-12T08:33:03.557Z,77.73
2018-06-12T08:34:03.526Z,78.49
2018-06-12T08:35:03.513Z,78.97
2018-06-12T08:36:03.483Z,78.88
2018-06-12T08:37:03.457Z,79.07
2018-06-12T08:38:03.441Z,78.59
2018-06-12T08:39:03.403Z,78.40
2018-06-12T08:40:03.407Z,78.20
2018-06-12T08:41:03.355Z,78.78
2018-06-12T08:42:03.340Z,78.92
2018-06-12T08:43:03.321Z,78.34
2018-06-12T08:44:03.310Z,78.63
2018-06-12T08:45:03.267Z,78.38
2018-06-12T08:46:03.244Z,78.09
2018-06-12T08:47:03.215Z,78.38
2018-06-12T08:48:03.200Z,75.98
2018-06-12T08:49:03.169Z,76.27
2018-06-12T08:50:03.152Z,76.52
2018-06-12T08:51:03.120Z,76.71
2018-06-12T08:52:03.105Z,77.76
2018-06-12T08:53:03.079Z,78.25
2018-06-12T08:54:03.062Z,78.53
2018-06-12T08:55:03.040Z,77.76
2018-06-12T08:56:03.007Z,77.67
2018-06-12T08:57:02.980Z,77.67
2018-06-12T08:58:02.962Z,78.28
2018-06-12T08:59:02.940Z,77.71
2018-06-12T09:00:02.910Z,77.61
2018-06-12T09:01:02.885Z,76.37
2018-06-12T09:02:02.870Z,76.17
2018-06-12T09:03:02.846Z,76.07
2018-06-12T09:04:02.825Z,77.36
2018-06-12T09:05:02.793Z,75.50
2018-06-12T09:06:02.776Z,75.25
2018-06-12T09:07:02.754Z,75.29
2018-06-12T09:08:02.722Z,74.71
2018-06-12T09:09:02.697Z,74.23
2018-06-12T09:10:02.679Z,73.56
2018-06-12T09:11:02.657Z,73.62
2018-06-12T09:12:02.629Z,74.10
2018-06-12T09:13:02.603Z,74.19
2018-06-12T09:14:02.590Z,74.58
2018-06-12T09:15:02.561Z,74.58
2018-06-12T09:16:02.533Z,75.54
2018-06-12T09:17:02.517Z,75.50
2018-06-12T09:18:02.496Z,74.83
2018-06-12T09:19:02.463Z,75.31
2018-06-12T09:20:02.448Z,77.00
2018-06-12T09:21:02.427Z,77.38
2018-06-12T09:22:02.398Z,78.09
2018-06-12T09:23:02.370Z,77.90
2018-06-12T09:24:02.358Z,75.56
2018-06-12T09:25:02.375Z,75.56
2018-06-12T09:26:02.304Z,75.46
2018-06-12T09:27:02.294Z,75.27
2018-06-12T09:28:02.262Z,75.02
2018-06-12T09:29:02.242Z,74.64
2018-06-12T09:30:02.208Z,75.70
2018-06-12T09:31:02.186Z,76.75
2018-06-12T09:32:02.163Z,76.42
2018-06-12T09:33:02.137Z,76.17
2018-06-12T09:34:02.122Z,76.42
2018-06-12T09:35:02.092Z,76.04
2018-06-12T09:36:02.109Z,77.09
2018-06-12T09:37:02.046Z,77.51
2018-06-12T09:38:02.026Z,77.51
2018-06-12T09:39:01.998Z,76.75
2018-06-12T09:40:01.978Z,77.04
2018-06-12T09:41:01.977Z,76.75
2018-06-12T09:42:01.942Z,75.89
2018-06-12T09:43:01.901Z,76.37
2018-06-12T09:44:01.879Z,76.56
2018-06-12T09:45:01.858Z,75.21
2018-06-12T09:46:01.841Z,76.94
2018-06-12T09:47:01.816Z,76.27
2018-06-12T09:48:01.798Z,76.27
2018-06-12T09:49:01.836Z,75.12
2018-06-12T09:50:01.744Z,74.83
2018-06-12T09:51:01.728Z,75.31
2018-06-12T09:52:01.696Z,75.70
2018-06-12T09:53:01.677Z,74.93
2018-06-12T09:54:01.652Z,74.35
2018-06-12T09:55:01.629Z,75.12
2018-06-12T09:56:01.598Z,75.21
2018-06-12T09:57:01.578Z,75.79
2018-06-12T09:58:01.569Z,75.70
2018-06-12T09:59:01.529Z,75.02
2018-06-12T10:00:01.513Z,74.10
2018-06-12T10:01:01.498Z,74.01
2018-06-12T10:02:01.463Z,73.81
2018-06-12T10:03:01.439Z,72.75
2018-06-12T10:04:01.412Z,72.50
2018-06-12T10:05:01.401Z,72.02
2018-06-12T10:06:01.364Z,71.64
2018-06-12T10:07:01.340Z,72.41
2018-06-12T10:08:01.350Z,72.22
2018-06-12T10:09:01.327Z,70.87
2018-06-12T10:10:01.279Z,71.80
2018-06-12T10:11:01.248Z,72.37
2018-06-12T10:12:01.232Z,73.04
2018-06-12T10:13:01.201Z,73.08
2018-06-12T10:14:01.187Z,73.18
2018-06-12T10:15:01.178Z,73.18
2018-06-12T10:16:01.132Z,73.66
2018-06-12T10:17:01.118Z,72.69
2018-06-12T10:18:01.090Z,73.18
2018-06-12T10:19:01.067Z,72.12
2018-06-12T10:20:01.042Z,72.25
2018-06-12T10:21:01.034Z,71.55
2018-06-12T10:22:01.008Z,71.83
2018-06-12T10:23:00.990Z,71.83
2018-06-12T10:24:00.947Z,71.64
2018-06-12T10:25:00.976Z,72.12
2018-06-12T10:26:00.907Z,72.69
2018-06-12T10:27:00.881Z,72.25
2018-06-12T10:28:00.862Z,72.02
2018-06-12T10:29:00.851Z,72.22
2018-06-12T10:30:00.810Z,71.80
2018-06-12T10:31:00.788Z,71.98
2018-06-12T10:32:00.784Z,72.99
2018-06-12T10:33:00.746Z,73.66
2018-06-12T10:34:00.720Z,72.12
2018-06-12T10:35:00.706Z,71.93
2018-06-12T10:36:00.681Z,72.31
2018-06-12T10:37:00.653Z,71.87
2018-06-12T10:38:00.628Z,71.83
2018-06-12T10:39:00.607Z,72.22
2018-06-12T10:40:00.598Z,72.79
2018-06-12T10:41:00.557Z,72.69
2018-06-12T10:42:00.545Z,72.02
2018-06-12T10:43:00.535Z,72.54
2018-06-12T10:44:00.493Z,71.39
2018-06-12T10:45:00.470Z,70.97
2018-06-12T10:46:00.455Z,70.97
2018-06-12T10:47:00.428Z,71.16
2018-06-12T10:48:00.397Z,70.97
2018-06-12T10:49:00.381Z,70.97
2018-06-12T10:50:00.417Z,71.45
2018-06-12T10:51:00.327Z,72.12
2018-06-12T10:52:00.308Z,72.41
2018-06-12T10:53:00.282Z,71.16
2018-06-12T10:54:00.270Z,70.87
2018-06-12T10:55:00.241Z,71.48
2018-06-12T10:56:00.220Z,71.25
2018-06-12T10:57:00.194Z,71.83
2018-06-12T10:58:00.169Z,72.60
2018-06-12T10:59:00.158Z,72.60
2018-06-12T11:00:00.127Z,73.08
2018-06-12T11:01:00.107Z,72.12
2018-06-12T11:02:00.085Z,72.66
2018-06-12T11:03:00.053Z,72.50
2018-06-12T11:04:00.041Z,72.12
2018-06-12T11:05:00.035Z,73.08
2018-06-12T11:05:59.995Z,72.73
2018-06-12T11:06:59.974Z,72.25
2018-06-12T11:07:59.945Z,73.02
2018-06-12T11:08:59.924Z,72.25
2018-06-12T11:09:59.905Z,72.25
2018-06-12T11:10:59.876Z,71.29
2018-06-12T11:11:59.852Z,70.65
2018-06-12T11:12:59.832Z,70.46
2018-06-12T11:13:59.814Z,70.65
2018-06-12T11:14:59.780Z,71.61
2018-06-12T11:15:59.766Z,69.89
2018-06-12T11:16:59.736Z,69.79
2018-06-12T11:17:59.722Z,69.89
2018-06-12T11:18:59.698Z,71.14
2018-06-12T11:19:59.669Z,71.17
2018-06-12T11:20:59.654Z,71.65
2018-06-12T11:21:59.624Z,69.50
2018-06-12T11:22:59.608Z,70.17
2018-06-12T11:23:59.582Z,69.60
2018-06-12T11:24:59.555Z,70.27
2018-06-12T11:25:59.537Z,70.07
2018-06-12T11:26:59.521Z,70.27
2018-06-12T11:27:59.495Z,71.14
2018-06-12T11:28:59.476Z,70.62
2018-06-12T11:29:59.450Z,71.00
2018-06-12T11:30:59.423Z,71.19
2018-06-12T11:31:59.468Z,71.19
2018-06-12T11:32:59.391Z,71.29
2018-06-12T11:33:59.358Z,71.10
2018-06-12T11:34:59.332Z,72.64
2018-06-12T11:35:59.319Z,72.31
2018-06-12T11:36:59.293Z,72.50
2018-06-12T11:37:59.269Z,73.18
2018-06-12T11:38:59.249Z,73.75
2018-06-12T11:39:59.221Z,74.10
2018-06-12T11:40:59.207Z,73.56
2018-06-12T11:41:59.234Z,74.52
2018-06-12T11:42:59.157Z,75.48
2018-06-12T11:43:59.137Z,74.81
2018-06-12T11:44:59.114Z,74.62
2018-06-12T11:45:59.091Z,74.52
2018-06-12T11:46:59.081Z,74.90
2018-06-12T11:47:59.052Z,73.46
2018-06-12T11:48:59.015Z,73.56
2018-06-12T11:49:59.003Z,73.75
2018-06-12T11:50:58.994Z,74.52
2018-06-12T11:51:58.950Z,74.85
2018-06-12T11:52:58.928Z,74.46
2018-06-12T11:53:58.977Z,73.60
2018-06-12T11:54:58.895Z,72.73
2018-06-12T11:55:58.865Z,72.16
2018-06-12T11:56:58.834Z,72.06
2018-06-12T11:57:58.822Z,72.25
2018-06-12T11:58:58.791Z,72.44
2018-06-12T11:59:58.771Z,72.44
2018-06-12T12:00:58.757Z,72.73
2018-06-12T12:01:58.721Z,72.54
2018-06-12T12:02:58.733Z,73.21
2018-06-12T12:03:58.681Z,73.46
2018-06-12T12:04:58.684Z,73.56
2018-06-12T12:05:58.631Z,74.04
2018-06-12T12:06:58.620Z,74.04
2018-06-12T12:07:58.593Z,74.43
2018-06-12T12:08:58.569Z,74.71
2018-06-12T12:09:58.541Z,73.56
2018-06-12T12:10:58.518Z,74.13
2018-06-12T12:11:58.517Z,74.43
2018-06-12T12:12:58.481Z,74.90
2018-06-12T12:13:58.453Z,74.90
2018-06-12T12:14:58.428Z,75.29
2018-06-12T12:15:58.412Z,75.57
2018-06-12T12:16:58.447Z,74.65
2018-06-12T12:17:58.368Z,74.65
2018-06-12T12:18:58.363Z,73.79
2018-06-12T12:19:58.321Z,73.25
2018-06-12T12:20:58.288Z,72.96
2018-06-12T12:21:58.276Z,72.16
2018-06-12T12:22:58.246Z,72.29
2018-06-12T12:23:58.223Z,71.61
2018-06-12T12:24:58.203Z,70.94
2018-06-12T12:25:58.179Z,70.94
2018-06-12T12:26:58.148Z,71.10
2018-06-12T12:27:58.135Z,70.56
2018-06-12T12:28:58.112Z,71.23
2018-06-12T12:29:58.093Z,70.84
2018-06-12T12:30:58.062Z,70.94
2018-06-12T12:31:58.045Z,71.14
2018-06-12T12:32:58.025Z,71.65
2018-06-12T12:33:57.999Z,72.32
2018-06-12T12:34:57.973Z,71.01
2018-06-12T12:35:57.956Z,69.82
2018-06-12T12:36:57.927Z,70.07
2018-06-12T12:37:57.908Z,70.75
2018-06-12T12:38:57.879Z,70.40
2018-06-12T12:39:57.867Z,70.46
2018-06-12T12:40:57.838Z,71.04
2018-06-12T12:41:57.823Z,71.42
2018-06-12T12:42:57.798Z,71.14
2018-06-12T12:43:57.769Z,71.23
2018-06-12T12:44:57.750Z,71.52
2018-06-12T12:45:57.729Z,72.38
2018-06-12T12:46:57.705Z,71.61
2018-06-12T12:47:57.683Z,71.33
2018-06-12T12:48:57.655Z,71.14
2018-06-12T12:49:57.649Z,71.39
2018-06-12T12:50:57.614Z,71.87
2018-06-12T12:51:57.590Z,72.16
2018-06-12T12:52:57.590Z,72.19
2018-06-12T12:53:57.551Z,72.00
2018-06-12T12:54:57.528Z,71.81
2018-06-12T12:55:57.496Z,70.56